Terminal Aerodrome Forecast
Issued by NWS

Home | Current Version | Previous Version | Text Only | Print | Product List | Glossary Off
Versions: 1 2 3 4 5 6 7 8 9 10 11 12 13 14 15 16 17 18 19 20 21

000
FTUS43 KBIS 271700
TAFMOT
TAF
KMOT 271732Z 2718/2818 36018G26KT P6SM FEW250
     FM280100 36014KT P6SM BKN250
     FM280600 01014KT P6SM BKN120
     FM281400 01012KT P6SM OVC035=

USA.gov is the U.S. government's official web portal to all federal, state and local government web resources and services.